sensor_id;sensor_type;location;lat;lon;timestamp;pressure;altitude;pressure_sealevel;temperature
68027;BMP180;54819;48.030;14.710;2022-11-20T00:01:23;97022.00;;;2.10
68027;BMP180;54819;48.030;14.710;2022-11-20T00:03:52;97014.40;;;2.10
68027;BMP180;54819;48.030;14.710;2022-11-20T00:06:21;97016.40;;;2.10
68027;BMP180;54819;48.030;14.710;2022-11-20T00:08:49;97014.60;;;2.20
68027;BMP180;54819;48.030;14.710;2022-11-20T00:11:22;97016.40;;;2.20
68027;BMP180;54819;48.030;14.710;2022-11-20T00:13:53;97020.40;;;2.20
68027;BMP180;54819;48.030;14.710;2022-11-20T00:16:24;97018.40;;;2.22
68027;BMP180;54819;48.030;14.710;2022-11-20T00:18:52;97026.00;;;2.20
68027;BMP180;54819;48.030;14.710;2022-11-20T00:21:23;97026.40;;;2.20
68027;BMP180;54819;48.030;14.710;2022-11-20T00:23:53;97026.80;;;2.20
68027;BMP180;54819;48.030;14.710;2022-11-20T00:26:23;97026.80;;;2.22
68027;BMP180;54819;48.030;14.710;2022-11-20T00:28:54;97026.40;;;2.28
68027;BMP180;54819;48.030;14.710;2022-11-20T00:31:22;97030.40;;;2.28
68027;BMP180;54819;48.030;14.710;2022-11-20T00:33:49;97033.00;;;2.30
68027;BMP180;54819;48.030;14.710;2022-11-20T00:36:23;97033.20;;;2.30
68027;BMP180;54819;48.030;14.710;2022-11-20T00:38:56;97033.40;;;2.34
68027;BMP180;54819;48.030;14.710;2022-11-20T00:41:25;97027.60;;;2.38
68027;BMP180;54819;48.030;14.710;2022-11-20T00:43:54;97024.80;;;2.40
68027;BMP180;54819;48.030;14.710;2022-11-20T00:46:24;97031.60;;;2.42
68027;BMP180;54819;48.030;14.710;2022-11-20T00:48:52;97025.60;;;2.50
68027;BMP180;54819;48.030;14.710;2022-11-20T00:51:22;97029.00;;;2.50
68027;BMP180;54819;48.030;14.710;2022-11-20T00:53:49;97032.80;;;2.50
68027;BMP180;54819;48.030;14.710;2022-11-20T00:56:19;97042.20;;;2.60
68027;BMP180;54819;48.030;14.710;2022-11-20T00:58:48;97042.00;;;2.64
68027;BMP180;54819;48.030;14.710;2022-11-20T01:01:22;97040.20;;;2.70
68027;BMP180;54819;48.030;14.710;2022-11-20T01:03:53;97040.80;;;2.80
68027;BMP180;54819;48.030;14.710;2022-11-20T01:06:30;97037.20;;;2.86
68027;BMP180;54819;48.030;14.710;2022-11-20T01:09:01;97038.00;;;2.90
68027;BMP180;54819;48.030;14.710;2022-11-20T01:11:33;97037.40;;;3.00
68027;BMP180;54819;48.030;14.710;2022-11-20T01:14:02;97041.60;;;3.00
68027;BMP180;54819;48.030;14.710;2022-11-20T01:16:34;97042.40;;;3.00
68027;BMP180;54819;48.030;14.710;2022-11-20T01:19:05;97044.40;;;2.94
68027;BMP180;54819;48.030;14.710;2022-11-20T01:21:36;97039.80;;;2.90
68027;BMP180;54819;48.030;14.710;2022-11-20T01:24:06;97043.60;;;2.78
68027;BMP180;54819;48.030;14.710;2022-11-20T01:26:39;97042.60;;;2.70
68027;BMP180;54819;48.030;14.710;2022-11-20T01:29:14;97032.80;;;2.60
68027;BMP180;54819;48.030;14.710;2022-11-20T01:31:42;97025.40;;;2.60
68027;BMP180;54819;48.030;14.710;2022-11-20T01:34:14;97017.20;;;2.60
68027;BMP180;54819;48.030;14.710;2022-11-20T01:36:42;97033.60;;;2.70
68027;BMP180;54819;48.030;14.710;2022-11-20T01:39:22;97036.40;;;2.70
68027;BMP180;54819;48.030;14.710;2022-11-20T01:41:52;97032.00;;;2.74
68027;BMP180;54819;48.030;14.710;2022-11-20T01:47:34;97038.60;;;2.80
68027;BMP180;54819;48.030;14.710;2022-11-20T01:50:17;97028.80;;;2.72
68027;BMP180;54819;48.030;14.710;2022-11-20T01:52:54;97023.20;;;2.70
68027;BMP180;54819;48.030;14.710;2022-11-20T01:55:30;97022.60;;;2.66
68027;BMP180;54819;48.030;14.710;2022-11-20T01:57:58;97019.80;;;2.60
68027;BMP180;54819;48.030;14.710;2022-11-20T02:00:26;97024.60;;;2.60
68027;BMP180;54819;48.030;14.710;2022-11-20T02:03:00;97025.60;;;2.50
68027;BMP180;54819;48.030;14.710;2022-11-20T02:05:35;97030.00;;;2.58
68027;BMP180;54819;48.030;14.710;2022-11-20T02:08:06;97026.20;;;2.60
68027;BMP180;54819;48.030;14.710;2022-11-20T02:10:34;97024.00;;;2.60
68027;BMP180;54819;48.030;14.710;2022-11-20T02:13:02;97024.20;;;2.70
68027;BMP180;54819;48.030;14.710;2022-11-20T02:15:49;97022.60;;;2.80
68027;BMP180;54819;48.030;14.710;2022-11-20T02:18:18;97022.20;;;2.80
68027;BMP180;54819;48.030;14.710;2022-11-20T02:20:49;97015.60;;;2.94
68027;BMP180;54819;48.030;14.710;2022-11-20T02:26:13;97015.00;;;3.00
68027;BMP180;54819;48.030;14.710;2022-11-20T02:28:42;97008.80;;;3.00
68027;BMP180;54819;48.030;14.710;2022-11-20T02:31:09;97003.80;;;3.00
68027;BMP180;54819;48.030;14.710;2022-11-20T02:33:36;96997.20;;;3.00
68027;BMP180;54819;48.030;14.710;2022-11-20T02:36:03;97000.40;;;2.90
68027;BMP180;54819;48.030;14.710;2022-11-20T02:38:30;97001.80;;;2.80
68027;BMP180;54819;48.030;14.710;2022-11-20T02:40:57;97004.20;;;2.78
68027;BMP180;54819;48.030;14.710;2022-11-20T02:43:23;97011.80;;;2.70
68027;BMP180;54819;48.030;14.710;2022-11-20T02:45:50;97011.60;;;2.70
68027;BMP180;54819;48.030;14.710;2022-11-20T02:48:17;97015.40;;;2.70
68027;BMP180;54819;48.030;14.710;2022-11-20T02:50:44;97010.60;;;2.64
68027;BMP180;54819;48.030;14.710;2022-11-20T02:53:11;97010.60;;;2.70
68027;BMP180;54819;48.030;14.710;2022-11-20T02:55:38;97008.00;;;2.72
68027;BMP180;54819;48.030;14.710;2022-11-20T02:58:05;97009.20;;;2.76
68027;BMP180;54819;48.030;14.710;2022-11-20T03:00:32;97005.60;;;2.72
68027;BMP180;54819;48.030;14.710;2022-11-20T03:02:59;97004.20;;;2.70
68027;BMP180;54819;48.030;14.710;2022-11-20T03:05:26;96997.20;;;2.60
68027;BMP180;54819;48.030;14.710;2022-11-20T03:07:52;97000.80;;;2.60
68027;BMP180;54819;48.030;14.710;2022-11-20T03:10:19;97006.20;;;2.60
68027;BMP180;54819;48.030;14.710;2022-11-20T03:12:46;97010.00;;;2.60
68027;BMP180;54819;48.030;14.710;2022-11-20T03:15:13;97012.80;;;2.58
68027;BMP180;54819;48.030;14.710;2022-11-20T03:17:40;97018.60;;;2.60
68027;BMP180;54819;48.030;14.710;2022-11-20T03:20:08;97020.00;;;2.54
68027;BMP180;54819;48.030;14.710;2022-11-20T03:22:35;97023.00;;;2.52
68027;BMP180;54819;48.030;14.710;2022-11-20T03:25:03;97024.80;;;2.60
68027;BMP180;54819;48.030;14.710;2022-11-20T03:27:34;97037.20;;;2.60
68027;BMP180;54819;48.030;14.710;2022-11-20T03:30:02;97036.00;;;2.70
68027;BMP180;54819;48.030;14.710;2022-11-20T03:32:29;97039.60;;;2.80
68027;BMP180;54819;48.030;14.710;2022-11-20T03:34:56;97035.80;;;2.80
68027;BMP180;54819;48.030;14.710;2022-11-20T03:37:22;97031.40;;;2.80
68027;BMP180;54819;48.030;14.710;2022-11-20T03:39:49;97041.60;;;2.90
68027;BMP180;54819;48.030;14.710;2022-11-20T03:42:16;97042.20;;;2.90
68027;BMP180;54819;48.030;14.710;2022-11-20T03:45:02;97043.20;;;2.90
68027;BMP180;54819;48.030;14.710;2022-11-20T03:47:29;97039.40;;;2.92
68027;BMP180;54819;48.030;14.710;2022-11-20T03:49:56;97037.60;;;2.92
68027;BMP180;54819;48.030;14.710;2022-11-20T03:52:22;97043.00;;;2.90
68027;BMP180;54819;48.030;14.710;2022-11-20T03:54:49;97063.60;;;3.00
68027;BMP180;54819;48.030;14.710;2022-11-20T03:57:16;97056.40;;;2.96
68027;BMP180;54819;48.030;14.710;2022-11-20T03:59:43;97057.40;;;3.00
68027;BMP180;54819;48.030;14.710;2022-11-20T04:02:10;97044.80;;;3.10
68027;BMP180;54819;48.030;14.710;2022-11-20T04:04:37;97048.20;;;3.10
68027;BMP180;54819;48.030;14.710;2022-11-20T04:07:04;97048.60;;;3.10
68027;BMP180;54819;48.030;14.710;2022-11-20T04:09:30;97048.80;;;3.20
68027;BMP180;54819;48.030;14.710;2022-11-20T04:11:57;97046.60;;;3.20
68027;BMP180;54819;48.030;14.710;2022-11-20T04:14:24;97050.00;;;3.20
68027;BMP180;54819;48.030;14.710;2022-11-20T04:16:51;97038.40;;;3.20
68027;BMP180;54819;48.030;14.710;2022-11-20T04:19:18;97040.60;;;3.22
68027;BMP180;54819;48.030;14.710;2022-11-20T04:21:45;97037.80;;;3.30
68027;BMP180;54819;48.030;14.710;2022-11-20T04:24:12;97036.40;;;3.30
68027;BMP180;54819;48.030;14.710;2022-11-20T04:26:39;97037.80;;;3.30
68027;BMP180;54819;48.030;14.710;2022-11-20T04:29:10;97030.20;;;3.30
68027;BMP180;54819;48.030;14.710;2022-11-20T04:31:38;97030.40;;;3.40
68027;BMP180;54819;48.030;14.710;2022-11-20T04:34:06;97023.20;;;3.46
68027;BMP180;54819;48.030;14.710;2022-11-20T04:36:34;97027.20;;;3.50
68027;BMP180;54819;48.030;14.710;2022-11-20T04:39:05;97024.60;;;3.50
68027;BMP180;54819;48.030;14.710;2022-11-20T04:41:36;97015.20;;;3.50
68027;BMP180;54819;48.030;14.710;2022-11-20T04:44:05;97022.00;;;3.50
68027;BMP180;54819;48.030;14.710;2022-11-20T04:46:39;97023.40;;;3.56
68027;BMP180;54819;48.030;14.710;2022-11-20T04:49:07;97016.80;;;3.60
68027;BMP180;54819;48.030;14.710;2022-11-20T04:51:34;97012.80;;;3.60
68027;BMP180;54819;48.030;14.710;2022-11-20T04:54:02;97012.80;;;3.60
68027;BMP180;54819;48.030;14.710;2022-11-20T04:56:29;97012.00;;;3.60
68027;BMP180;54819;48.030;14.710;2022-11-20T04:59:01;97004.60;;;3.50
68027;BMP180;54819;48.030;14.710;2022-11-20T05:01:28;97010.40;;;3.50
68027;BMP180;54819;48.030;14.710;2022-11-20T05:03:55;97014.00;;;3.50
68027;BMP180;54819;48.030;14.710;2022-11-20T05:06:22;97008.20;;;3.50
68027;BMP180;54819;48.030;14.710;2022-11-20T05:08:50;97008.40;;;3.50
68027;BMP180;54819;48.030;14.710;2022-11-20T05:11:20;97013.40;;;3.60
68027;BMP180;54819;48.030;14.710;2022-11-20T05:13:49;97006.00;;;3.60
68027;BMP180;54819;48.030;14.710;2022-11-20T05:16:20;97014.40;;;3.66
68027;BMP180;54819;48.030;14.710;2022-11-20T05:18:49;97012.80;;;3.70
68027;BMP180;54819;48.030;14.710;2022-11-20T05:21:16;97010.20;;;3.80
68027;BMP180;54819;48.030;14.710;2022-11-20T05:23:44;97006.80;;;3.80
68027;BMP180;54819;48.030;14.710;2022-11-20T05:26:16;96999.00;;;3.80
68027;BMP180;54819;48.030;14.710;2022-11-20T05:28:45;96997.20;;;3.86
68027;BMP180;54819;48.030;14.710;2022-11-20T05:31:18;96994.20;;;3.90
68027;BMP180;54819;48.030;14.710;2022-11-20T05:33:52;96997.60;;;3.90
68027;BMP180;54819;48.030;14.710;2022-11-20T05:36:19;96997.60;;;3.80
68027;BMP180;54819;48.030;14.710;2022-11-20T05:38:46;97000.60;;;3.72
68027;BMP180;54819;48.030;14.710;2022-11-20T05:41:19;97004.80;;;3.70
68027;BMP180;54819;48.030;14.710;2022-11-20T05:43:49;97006.40;;;3.70
68027;BMP180;54819;48.030;14.710;2022-11-20T05:46:20;97006.00;;;3.60
68027;BMP180;54819;48.030;14.710;2022-11-20T05:48:56;97012.20;;;3.60
68027;BMP180;54819;48.030;14.710;2022-11-20T05:51:24;97008.60;;;3.60
68027;BMP180;54819;48.030;14.710;2022-11-20T05:53:51;97011.40;;;3.66
68027;BMP180;54819;48.030;14.710;2022-11-20T05:56:21;97009.20;;;3.76
68027;BMP180;54819;48.030;14.710;2022-11-20T05:58:49;97014.80;;;3.74
68027;BMP180;54819;48.030;14.710;2022-11-20T06:01:24;97014.80;;;3.80
68027;BMP180;54819;48.030;14.710;2022-11-20T06:03:53;97019.80;;;3.80
68027;BMP180;54819;48.030;14.710;2022-11-20T06:06:21;97019.40;;;3.80
68027;BMP180;54819;48.030;14.710;2022-11-20T06:08:48;97022.20;;;3.80
68027;BMP180;54819;48.030;14.710;2022-11-20T06:11:16;97014.00;;;3.80
68027;BMP180;54819;48.030;14.710;2022-11-20T06:13:44;97026.00;;;3.80
68027;BMP180;54819;48.030;14.710;2022-11-20T06:16:14;97026.80;;;3.80
68027;BMP180;54819;48.030;14.710;2022-11-20T06:18:41;97031.20;;;3.80
68027;BMP180;54819;48.030;14.710;2022-11-20T06:21:14;97038.60;;;3.80
68027;BMP180;54819;48.030;14.710;2022-11-20T06:23:42;97043.20;;;3.80
68027;BMP180;54819;48.030;14.710;2022-11-20T06:26:21;97045.20;;;3.80
68027;BMP180;54819;48.030;14.710;2022-11-20T06:28:50;97047.60;;;3.80
68027;BMP180;54819;48.030;14.710;2022-11-20T06:31:20;97052.40;;;3.80
68027;BMP180;54819;48.030;14.710;2022-11-20T06:33:48;97056.60;;;3.70
68027;BMP180;54819;48.030;14.710;2022-11-20T06:36:19;97061.40;;;3.70
68027;BMP180;54819;48.030;14.710;2022-11-20T06:38:46;97061.80;;;3.74
68027;BMP180;54819;48.030;14.710;2022-11-20T06:41:18;97058.20;;;3.78
68027;BMP180;54819;48.030;14.710;2022-11-20T06:43:45;97062.00;;;3.80
68027;BMP180;54819;48.030;14.710;2022-11-20T06:46:14;97063.80;;;3.80
68027;BMP180;54819;48.030;14.710;2022-11-20T06:48:45;97062.40;;;3.84
68027;BMP180;54819;48.030;14.710;2022-11-20T06:51:13;97065.00;;;3.90
68027;BMP180;54819;48.030;14.710;2022-11-20T06:53:40;97061.80;;;3.90
68027;BMP180;54819;48.030;14.710;2022-11-20T06:56:07;97064.00;;;4.00
68027;BMP180;54819;48.030;14.710;2022-11-20T06:58:35;97059.40;;;4.04
68027;BMP180;54819;48.030;14.710;2022-11-20T07:01:10;97070.40;;;4.10
68027;BMP180;54819;48.030;14.710;2022-11-20T07:03:39;97069.40;;;4.30
68027;BMP180;54819;48.030;14.710;2022-11-20T07:06:06;97069.60;;;4.30
68027;BMP180;54819;48.030;14.710;2022-11-20T07:08:34;97070.80;;;4.30
68027;BMP180;54819;48.030;14.710;2022-11-20T07:11:04;97073.80;;;4.38
68027;BMP180;54819;48.030;14.710;2022-11-20T07:13:32;97074.40;;;4.40
68027;BMP180;54819;48.030;14.710;2022-11-20T07:16:05;97075.40;;;4.40
68027;BMP180;54819;48.030;14.710;2022-11-20T07:18:33;97075.80;;;4.44
68027;BMP180;54819;48.030;14.710;2022-11-20T07:21:03;97074.00;;;4.50
68027;BMP180;54819;48.030;14.710;2022-11-20T07:23:30;97078.60;;;4.50
68027;BMP180;54819;48.030;14.710;2022-11-20T07:26:02;97082.60;;;4.50
68027;BMP180;54819;48.030;14.710;2022-11-20T07:28:29;97079.60;;;4.50
68027;BMP180;54819;48.030;14.710;2022-11-20T07:30:56;97082.00;;;4.50
68027;BMP180;54819;48.030;14.710;2022-11-20T07:33:23;97084.40;;;4.56
68027;BMP180;54819;48.030;14.710;2022-11-20T07:35:50;97085.40;;;4.60
68027;BMP180;54819;48.030;14.710;2022-11-20T07:38:17;97088.60;;;4.70
68027;BMP180;54819;48.030;14.710;2022-11-20T07:40:43;97083.00;;;4.80
68027;BMP180;54819;48.030;14.710;2022-11-20T07:43:10;97088.60;;;4.84
68027;BMP180;54819;48.030;14.710;2022-11-20T07:45:38;97083.80;;;4.90
68027;BMP180;54819;48.030;14.710;2022-11-20T07:48:04;97084.80;;;4.96
68027;BMP180;54819;48.030;14.710;2022-11-20T07:50:31;97086.40;;;5.00
68027;BMP180;54819;48.030;14.710;2022-11-20T07:53:04;97077.60;;;5.04
68027;BMP180;54819;48.030;14.710;2022-11-20T07:55:32;97080.20;;;5.10
68027;BMP180;54819;48.030;14.710;2022-11-20T07:57:59;97079.60;;;5.10
68027;BMP180;54819;48.030;14.710;2022-11-20T08:00:26;97073.80;;;5.30
68027;BMP180;54819;48.030;14.710;2022-11-20T08:02:54;97075.60;;;5.30
68027;BMP180;54819;48.030;14.710;2022-11-20T08:05:21;97080.80;;;5.40
68027;BMP180;54819;48.030;14.710;2022-11-20T08:07:48;97081.20;;;5.50
68027;BMP180;54819;48.030;14.710;2022-11-20T08:10:15;97083.80;;;5.60
68027;BMP180;54819;48.030;14.710;2022-11-20T08:12:51;97082.20;;;5.64
68027;BMP180;54819;48.030;14.710;2022-11-20T08:15:38;97083.80;;;5.80
68027;BMP180;54819;48.030;14.710;2022-11-20T08:18:09;97083.80;;;5.80
68027;BMP180;54819;48.030;14.710;2022-11-20T08:20:57;97078.20;;;5.98
68027;BMP180;54819;48.030;14.710;2022-11-20T08:23:24;97078.60;;;6.00
68027;BMP180;54819;48.030;14.710;2022-11-20T08:25:51;97077.60;;;6.00
68027;BMP180;54819;48.030;14.710;2022-11-20T08:28:18;97079.00;;;6.06
68027;BMP180;54819;48.030;14.710;2022-11-20T08:30:49;97072.80;;;6.10
68027;BMP180;54819;48.030;14.710;2022-11-20T08:33:18;97073.00;;;6.10
68027;BMP180;54819;48.030;14.710;2022-11-20T08:35:45;97073.80;;;6.20
68027;BMP180;54819;48.030;14.710;2022-11-20T08:38:12;97071.00;;;6.20
68027;BMP180;54819;48.030;14.710;2022-11-20T08:40:39;97072.00;;;6.24
68027;BMP180;54819;48.030;14.710;2022-11-20T08:43:06;97073.00;;;6.30
68027;BMP180;54819;48.030;14.710;2022-11-20T08:45:33;97072.20;;;6.30
68027;BMP180;54819;48.030;14.710;2022-11-20T08:48:02;97073.80;;;6.40
68027;BMP180;54819;48.030;14.710;2022-11-20T08:50:30;97074.80;;;6.50
68027;BMP180;54819;48.030;14.710;2022-11-20T08:53:04;97074.20;;;6.40
68027;BMP180;54819;48.030;14.710;2022-11-20T08:55:32;97073.20;;;6.40
68027;BMP180;54819;48.030;14.710;2022-11-20T08:58:03;97077.00;;;6.40
68027;BMP180;54819;48.030;14.710;2022-11-20T09:00:31;97077.00;;;6.44
68027;BMP180;54819;48.030;14.710;2022-11-20T09:02:59;97081.20;;;6.50
68027;BMP180;54819;48.030;14.710;2022-11-20T09:05:28;97080.60;;;6.70
68027;BMP180;54819;48.030;14.710;2022-11-20T09:07:58;97083.80;;;6.62
68027;BMP180;54819;48.030;14.710;2022-11-20T09:10:27;97084.60;;;6.70
68027;BMP180;54819;48.030;14.710;2022-11-20T09:12:55;97087.20;;;6.70
68027;BMP180;54819;48.030;14.710;2022-11-20T09:15:23;97090.80;;;6.80
68027;BMP180;54819;48.030;14.710;2022-11-20T09:20:18;97084.80;;;6.92
68027;BMP180;54819;48.030;14.710;2022-11-20T09:22:45;97088.20;;;7.00
68027;BMP180;54819;48.030;14.710;2022-11-20T09:25:12;97086.00;;;7.10
68027;BMP180;54819;48.030;14.710;2022-11-20T09:27:39;97090.20;;;7.14
68027;BMP180;54819;48.030;14.710;2022-11-20T09:30:08;97093.00;;;7.20
68027;BMP180;54819;48.030;14.710;2022-11-20T09:32:35;97083.80;;;7.20
68027;BMP180;54819;48.030;14.710;2022-11-20T09:35:03;97085.00;;;7.20
68027;BMP180;54819;48.030;14.710;2022-11-20T09:37:30;97080.80;;;7.10
68027;BMP180;54819;48.030;14.710;2022-11-20T09:39:57;97078.00;;;7.10
68027;BMP180;54819;48.030;14.710;2022-11-20T09:42:54;97075.20;;;7.10
68027;BMP180;54819;48.030;14.710;2022-11-20T09:56:04;97069.20;;;6.70
68027;BMP180;54819;48.030;14.710;2022-11-20T10:01:12;97062.20;;;6.60
68027;BMP180;54819;48.030;14.710;2022-11-20T10:04:01;97059.80;;;6.40
68027;BMP180;54819;48.030;14.710;2022-11-20T10:06:40;97060.80;;;6.50
68027;BMP180;54819;48.030;14.710;2022-11-20T10:12:20;97059.60;;;6.10
68027;BMP180;54819;48.030;14.710;2022-11-20T10:23:57;97058.60;;;6.08
68027;BMP180;54819;48.030;14.710;2022-11-20T10:29:44;97051.60;;;6.26
68027;BMP180;54819;48.030;14.710;2022-11-20T10:32:19;97053.60;;;6.30
68027;BMP180;54819;48.030;14.710;2022-11-20T10:34:58;97051.20;;;6.30
68027;BMP180;54819;48.030;14.710;2022-11-20T10:37:29;97051.60;;;6.38
68027;BMP180;54819;48.030;14.710;2022-11-20T10:40:32;97043.40;;;6.40
68027;BMP180;54819;48.030;14.710;2022-11-20T10:43:13;97044.20;;;6.50
68027;BMP180;54819;48.030;14.710;2022-11-20T10:45:57;97043.40;;;6.50
68027;BMP180;54819;48.030;14.710;2022-11-20T10:48:27;97043.40;;;6.60
68027;BMP180;54819;48.030;14.710;2022-11-20T10:54:17;97043.00;;;6.72
68027;BMP180;54819;48.030;14.710;2022-11-20T10:56:51;97037.40;;;6.94
68027;BMP180;54819;48.030;14.710;2022-11-20T10:59:58;97033.40;;;7.00
68027;BMP180;54819;48.030;14.710;2022-11-20T11:02:33;97022.00;;;7.14
68027;BMP180;54819;48.030;14.710;2022-11-20T11:05:15;97030.20;;;7.20
68027;BMP180;54819;48.030;14.710;2022-11-20T11:07:46;97027.80;;;7.30
68027;BMP180;54819;48.030;14.710;2022-11-20T11:10:39;97013.60;;;7.38
68027;BMP180;54819;48.030;14.710;2022-11-20T11:13:21;97022.80;;;7.50
68027;BMP180;54819;48.030;14.710;2022-11-20T11:15:48;97011.20;;;7.60
68027;BMP180;54819;48.030;14.710;2022-11-20T11:18:33;97015.20;;;7.70
68027;BMP180;54819;48.030;14.710;2022-11-20T11:21:04;97015.60;;;7.80
68027;BMP180;54819;48.030;14.710;2022-11-20T11:26:19;97007.00;;;7.88
68027;BMP180;54819;48.030;14.710;2022-11-20T11:29:04;97010.80;;;7.80
68027;BMP180;54819;48.030;14.710;2022-11-20T11:31:34;97010.80;;;7.78
68027;BMP180;54819;48.030;14.710;2022-11-20T11:34:16;97003.40;;;7.70
68027;BMP180;54819;48.030;14.710;2022-11-20T11:36:57;96999.40;;;7.70
68027;BMP180;54819;48.030;14.710;2022-11-20T11:39:28;96999.20;;;7.80
68027;BMP180;54819;48.030;14.710;2022-11-20T11:41:58;96993.80;;;7.90
68027;BMP180;54819;48.030;14.710;2022-11-20T11:44:30;96996.00;;;8.00
68027;BMP180;54819;48.030;14.710;2022-11-20T11:48:04;96996.00;;;8.18
68027;BMP180;54819;48.030;14.710;2022-11-20T11:50:27;96990.00;;;8.38
68027;BMP180;54819;48.030;14.710;2022-11-20T11:53:17;96988.00;;;8.50
68027;BMP180;54819;48.030;14.710;2022-11-20T11:58:47;96986.80;;;8.86
68027;BMP180;54819;48.030;14.710;2022-11-20T12:01:47;96986.40;;;8.96
68027;BMP180;54819;48.030;14.710;2022-11-20T12:07:04;96988.60;;;9.20
68027;BMP180;54819;48.030;14.710;2022-11-20T12:09:57;96985.40;;;9.18
68027;BMP180;54819;48.030;14.710;2022-11-20T12:12:35;96995.20;;;9.00
68027;BMP180;54819;48.030;14.710;2022-11-20T12:15:06;96990.40;;;9.00
68027;BMP180;54819;48.030;14.710;2022-11-20T12:17:36;96991.00;;;8.96
68027;BMP180;54819;48.030;14.710;2022-11-20T12:20:13;96999.60;;;9.00
68027;BMP180;54819;48.030;14.710;2022-11-20T12:25:24;96985.20;;;9.20
68027;BMP180;54819;48.030;14.710;2022-11-20T12:30:59;96979.40;;;9.40
68027;BMP180;54819;48.030;14.710;2022-11-20T12:39:35;96973.20;;;9.76
68027;BMP180;54819;48.030;14.710;2022-11-20T12:42:16;96974.20;;;9.80
68027;BMP180;54819;48.030;14.710;2022-11-20T12:45:25;96972.40;;;9.90
68027;BMP180;54819;48.030;14.710;2022-11-20T12:48:19;96972.60;;;9.90
68027;BMP180;54819;48.030;14.710;2022-11-20T12:59:53;96960.20;;;10.08
68027;BMP180;54819;48.030;14.710;2022-11-20T13:08:39;96955.40;;;10.10
68027;BMP180;54819;48.030;14.710;2022-11-20T13:14:13;96959.20;;;10.04
68027;BMP180;54819;48.030;14.710;2022-11-20T13:17:19;96958.40;;;10.10
68027;BMP180;54819;48.030;14.710;2022-11-20T13:19:54;96961.60;;;10.10
68027;BMP180;54819;48.030;14.710;2022-11-20T13:22:46;96955.40;;;10.12
68027;BMP180;54819;48.030;14.710;2022-11-20T13:27:51;96953.40;;;10.50
68027;BMP180;54819;48.030;14.710;2022-11-20T13:30:24;96957.80;;;10.60
68027;BMP180;54819;48.030;14.710;2022-11-20T13:35:29;96952.80;;;10.60
68027;BMP180;54819;48.030;14.710;2022-11-20T13:38:07;96950.20;;;10.52
68027;BMP180;54819;48.030;14.710;2022-11-20T13:43:38;96936.60;;;10.40
68027;BMP180;54819;48.030;14.710;2022-11-20T13:46:09;96936.00;;;10.30
68027;BMP180;54819;48.030;14.710;2022-11-20T13:48:46;96932.40;;;10.20
68027;BMP180;54819;48.030;14.710;2022-11-20T14:00:23;96924.40;;;9.90
68027;BMP180;54819;48.030;14.710;2022-11-20T14:03:11;96922.20;;;9.90
68027;BMP180;54819;48.030;14.710;2022-11-20T14:06:02;96922.80;;;9.82
68027;BMP180;54819;48.030;14.710;2022-11-20T14:08:40;96922.60;;;9.80
68027;BMP180;54819;48.030;14.710;2022-11-20T14:11:48;96917.60;;;9.70
68027;BMP180;54819;48.030;14.710;2022-11-20T14:14:16;96924.60;;;9.60
68027;BMP180;54819;48.030;14.710;2022-11-20T14:16:43;96921.20;;;9.50
68027;BMP180;54819;48.030;14.710;2022-11-20T14:19:29;96924.60;;;9.40
68027;BMP180;54819;48.030;14.710;2022-11-20T14:22:23;96929.40;;;9.30
68027;BMP180;54819;48.030;14.710;2022-11-20T14:27:43;96933.60;;;9.10
68027;BMP180;54819;48.030;14.710;2022-11-20T14:30:26;96931.40;;;9.00
68027;BMP180;54819;48.030;14.710;2022-11-20T14:33:00;96927.00;;;9.00
68027;BMP180;54819;48.030;14.710;2022-11-20T14:35:31;96925.20;;;8.96
68027;BMP180;54819;48.030;14.710;2022-11-20T14:38:02;96923.40;;;8.90
68027;BMP180;54819;48.030;14.710;2022-11-20T14:40:33;96917.00;;;8.90
68027;BMP180;54819;48.030;14.710;2022-11-20T14:43:35;96915.20;;;8.90
68027;BMP180;54819;48.030;14.710;2022-11-20T14:46:08;96916.40;;;8.90
68027;BMP180;54819;48.030;14.710;2022-11-20T14:48:49;96908.80;;;8.90
68027;BMP180;54819;48.030;14.710;2022-11-20T14:51:33;96909.00;;;8.90
68027;BMP180;54819;48.030;14.710;2022-11-20T14:54:16;96904.60;;;8.90
68027;BMP180;54819;48.030;14.710;2022-11-20T14:57:01;96905.40;;;8.90
68027;BMP180;54819;48.030;14.710;2022-11-20T14:59:32;96905.00;;;8.90
68027;BMP180;54819;48.030;14.710;2022-11-20T15:02:06;96908.00;;;8.80
68027;BMP180;54819;48.030;14.710;2022-11-20T15:07:28;96908.20;;;8.80
68027;BMP180;54819;48.030;14.710;2022-11-20T15:12:33;96908.00;;;8.70
68027;BMP180;54819;48.030;14.710;2022-11-20T15:15:02;96908.20;;;8.60
68027;BMP180;54819;48.030;14.710;2022-11-20T15:17:35;96907.80;;;8.50
68027;BMP180;54819;48.030;14.710;2022-11-20T15:20:14;96902.00;;;8.40
68027;BMP180;54819;48.030;14.710;2022-11-20T15:22:42;96901.40;;;8.30
68027;BMP180;54819;48.030;14.710;2022-11-20T15:25:14;96904.00;;;8.30
68027;BMP180;54819;48.030;14.710;2022-11-20T15:27:43;96901.00;;;8.30
68027;BMP180;54819;48.030;14.710;2022-11-20T15:30:18;96899.60;;;8.30
68027;BMP180;54819;48.030;14.710;2022-11-20T15:32:47;96903.20;;;8.30
68027;BMP180;54819;48.030;14.710;2022-11-20T15:35:15;96901.40;;;8.20
68027;BMP180;54819;48.030;14.710;2022-11-20T15:37:42;96900.60;;;8.20
68027;BMP180;54819;48.030;14.710;2022-11-20T15:40:10;96900.20;;;8.20
68027;BMP180;54819;48.030;14.710;2022-11-20T15:42:37;96902.80;;;8.20
68027;BMP180;54819;48.030;14.710;2022-11-20T15:45:05;96903.40;;;8.20
68027;BMP180;54819;48.030;14.710;2022-11-20T15:47:34;96899.60;;;8.10
68027;BMP180;54819;48.030;14.710;2022-11-20T15:50:02;96891.00;;;8.10
68027;BMP180;54819;48.030;14.710;2022-11-20T15:52:29;96881.20;;;8.02
68027;BMP180;54819;48.030;14.710;2022-11-20T15:55:10;96892.40;;;8.04
68027;BMP180;54819;48.030;14.710;2022-11-20T15:57:37;96888.80;;;8.08
68027;BMP180;54819;48.030;14.710;2022-11-20T16:00:05;96887.20;;;8.00
68027;BMP180;54819;48.030;14.710;2022-11-20T16:02:36;96888.60;;;8.00
68027;BMP180;54819;48.030;14.710;2022-11-20T16:05:04;96890.80;;;8.00
68027;BMP180;54819;48.030;14.710;2022-11-20T16:07:36;96891.20;;;8.00
68027;BMP180;54819;48.030;14.710;2022-11-20T16:10:04;96891.40;;;8.00
68027;BMP180;54819;48.030;14.710;2022-11-20T16:12:31;96895.80;;;8.00
68027;BMP180;54819;48.030;14.710;2022-11-20T16:15:17;96892.20;;;8.00
68027;BMP180;54819;48.030;14.710;2022-11-20T16:18:02;96896.00;;;8.00
68027;BMP180;54819;48.030;14.710;2022-11-20T16:20:29;96905.20;;;8.00